sensor_id;sensor_type;location;lat;lon;timestamp;pressure;altitude;pressure_sealevel;temperature;humidity
68075;BME280;54864;52.002;5.468;2023-03-19T00:00:38;100912.47;;;12.76;83.82
68075;BME280;54864;52.002;5.468;2023-03-19T00:01:38;100910.06;;;12.72;83.43
68075;BME280;54864;52.002;5.468;2023-03-19T00:02:40;100900.09;;;12.77;83.07
68075;BME280;54864;52.002;5.468;2023-03-19T00:03:41;100914.78;;;12.82;83.16
68075;BME280;54864;52.002;5.468;2023-03-19T00:04:43;100912.13;;;12.82;83.31
68075;BME280;54864;52.002;5.468;2023-03-19T00:05:49;100911.53;;;12.77;82.55
68075;BME280;54864;52.002;5.468;2023-03-19T00:06:52;100914.41;;;12.73;83.08
68075;BME280;54864;52.002;5.468;2023-03-19T00:07:53;100910.50;;;12.80;83.00
68075;BME280;54864;52.002;5.468;2023-03-19T00:08:55;100915.81;;;12.80;82.68
68075;BME280;54864;52.002;5.468;2023-03-19T00:09:56;100917.75;;;12.76;82.41
68075;BME280;54864;52.002;5.468;2023-03-19T00:10:58;100918.94;;;12.70;82.72
68075;BME280;54864;52.002;5.468;2023-03-19T00:11:58;100912.88;;;12.68;83.01
68075;BME280;54864;52.002;5.468;2023-03-19T00:13:00;100918.69;;;12.75;82.86
68075;BME280;54864;52.002;5.468;2023-03-19T00:14:02;100918.78;;;12.74;82.80
68075;BME280;54864;52.002;5.468;2023-03-19T00:15:05;100917.69;;;12.78;82.33
68075;BME280;54864;52.002;5.468;2023-03-19T00:16:08;100919.78;;;12.71;82.62
68075;BME280;54864;52.002;5.468;2023-03-19T00:17:10;100920.03;;;12.66;82.94
68075;BME280;54864;52.002;5.468;2023-03-19T00:18:11;100923.38;;;12.70;83.13
68075;BME280;54864;52.002;5.468;2023-03-19T00:19:12;100927.91;;;12.51;83.56
68075;BME280;54864;52.002;5.468;2023-03-19T00:20:13;100928.06;;;12.48;83.58
68075;BME280;54864;52.002;5.468;2023-03-19T00:21:15;100925.50;;;12.46;84.20
68075;BME280;54864;52.002;5.468;2023-03-19T00:22:16;100915.47;;;12.53;83.90
68075;BME280;54864;52.002;5.468;2023-03-19T00:23:18;100920.28;;;12.45;83.86
68075;BME280;54864;52.002;5.468;2023-03-19T00:24:19;100930.56;;;12.51;84.15
68075;BME280;54864;52.002;5.468;2023-03-19T00:25:21;100912.75;;;12.54;84.12
68075;BME280;54864;52.002;5.468;2023-03-19T00:26:22;100925.31;;;12.66;83.93
68075;BME280;54864;52.002;5.468;2023-03-19T00:27:23;100917.38;;;12.66;83.81
68075;BME280;54864;52.002;5.468;2023-03-19T00:28:25;100925.00;;;12.73;83.34
68075;BME280;54864;52.002;5.468;2023-03-19T00:29:28;100924.22;;;12.70;83.54
68075;BME280;54864;52.002;5.468;2023-03-19T00:30:30;100926.00;;;12.70;83.12
68075;BME280;54864;52.002;5.468;2023-03-19T00:31:32;100919.19;;;12.66;83.22
68075;BME280;54864;52.002;5.468;2023-03-19T00:32:32;100926.94;;;12.69;83.04
68075;BME280;54864;52.002;5.468;2023-03-19T00:33:34;100931.91;;;12.75;82.87
68075;BME280;54864;52.002;5.468;2023-03-19T00:34:35;100926.63;;;12.75;82.62
68075;BME280;54864;52.002;5.468;2023-03-19T00:35:38;100921.59;;;12.70;83.19
68075;BME280;54864;52.002;5.468;2023-03-19T00:36:39;100922.09;;;12.77;82.53
68075;BME280;54864;52.002;5.468;2023-03-19T00:37:41;100923.28;;;12.72;82.42
68075;BME280;54864;52.002;5.468;2023-03-19T00:38:44;100924.22;;;12.70;82.86
68075;BME280;54864;52.002;5.468;2023-03-19T00:39:46;100920.19;;;12.63;83.30
68075;BME280;54864;52.002;5.468;2023-03-19T00:40:47;100923.56;;;12.50;83.41
68075;BME280;54864;52.002;5.468;2023-03-19T00:41:48;100920.34;;;12.60;83.25
68075;BME280;54864;52.002;5.468;2023-03-19T00:42:49;100920.09;;;12.65;82.78
68075;BME280;54864;52.002;5.468;2023-03-19T00:43:52;100918.94;;;12.70;82.34
68075;BME280;54864;52.002;5.468;2023-03-19T00:44:55;100924.06;;;12.74;82.74
68075;BME280;54864;52.002;5.468;2023-03-19T00:45:57;100927.72;;;12.71;82.86
68075;BME280;54864;52.002;5.468;2023-03-19T00:46:57;100926.31;;;12.81;82.17
68075;BME280;54864;52.002;5.468;2023-03-19T00:47:59;100926.91;;;12.86;81.78
68075;BME280;54864;52.002;5.468;2023-03-19T00:49:00;100925.13;;;12.87;81.81
68075;BME280;54864;52.002;5.468;2023-03-19T00:50:02;100925.53;;;12.79;81.92
68075;BME280;54864;52.002;5.468;2023-03-19T00:51:05;100925.94;;;12.72;81.93
68075;BME280;54864;52.002;5.468;2023-03-19T00:52:07;100928.81;;;12.67;82.22
68075;BME280;54864;52.002;5.468;2023-03-19T00:53:08;100926.63;;;12.75;81.83
68075;BME280;54864;52.002;5.468;2023-03-19T00:54:10;100928.41;;;12.75;81.46
68075;BME280;54864;52.002;5.468;2023-03-19T00:55:11;100924.91;;;12.74;81.53
68075;BME280;54864;52.002;5.468;2023-03-19T00:56:14;100926.34;;;12.64;81.83
68075;BME280;54864;52.002;5.468;2023-03-19T00:57:15;100921.75;;;12.67;81.79
68075;BME280;54864;52.002;5.468;2023-03-19T00:58:17;100922.69;;;12.66;81.33
68075;BME280;54864;52.002;5.468;2023-03-19T00:59:18;100928.81;;;12.67;81.44
68075;BME280;54864;52.002;5.468;2023-03-19T01:00:21;100927.19;;;12.64;81.40
68075;BME280;54864;52.002;5.468;2023-03-19T01:01:22;100925.16;;;12.69;81.45
68075;BME280;54864;52.002;5.468;2023-03-19T01:02:25;100927.97;;;12.66;80.94
68075;BME280;54864;52.002;5.468;2023-03-19T01:03:25;100926.19;;;12.67;80.57
68075;BME280;54864;52.002;5.468;2023-03-19T01:04:27;100930.63;;;12.66;80.63
68075;BME280;54864;52.002;5.468;2023-03-19T01:05:28;100920.50;;;12.57;80.81
68075;BME280;54864;52.002;5.468;2023-03-19T01:06:30;100928.69;;;12.53;80.83
68075;BME280;54864;52.002;5.468;2023-03-19T01:07:31;100927.13;;;12.49;81.57
68075;BME280;54864;52.002;5.468;2023-03-19T01:08:33;100934.38;;;12.45;81.59
68075;BME280;54864;52.002;5.468;2023-03-19T01:09:35;100929.00;;;12.47;81.87
68075;BME280;54864;52.002;5.468;2023-03-19T01:10:36;100928.84;;;12.50;81.81
68075;BME280;54864;52.002;5.468;2023-03-19T01:11:37;100926.19;;;12.50;81.77
68075;BME280;54864;52.002;5.468;2023-03-19T01:12:39;100926.19;;;12.50;81.68
68075;BME280;54864;52.002;5.468;2023-03-19T01:13:40;100932.75;;;12.43;81.70
68075;BME280;54864;52.002;5.468;2023-03-19T01:14:42;100927.53;;;12.41;81.82
68075;BME280;54864;52.002;5.468;2023-03-19T01:15:44;100924.56;;;12.47;81.80
68075;BME280;54864;52.002;5.468;2023-03-19T01:16:46;100934.06;;;12.51;81.84
68075;BME280;54864;52.002;5.468;2023-03-19T01:17:47;100930.78;;;12.46;81.86
68075;BME280;54864;52.002;5.468;2023-03-19T01:18:49;100934.22;;;12.48;82.01
68075;BME280;54864;52.002;5.468;2023-03-19T01:19:50;100938.19;;;12.40;82.16
68075;BME280;54864;52.002;5.468;2023-03-19T01:20:51;100920.75;;;12.35;81.88
68075;BME280;54864;52.002;5.468;2023-03-19T01:21:52;100922.31;;;12.40;82.12
68075;BME280;54864;52.002;5.468;2023-03-19T01:22:54;100932.13;;;12.37;82.23
68075;BME280;54864;52.002;5.468;2023-03-19T01:23:55;100928.13;;;12.29;82.53
68075;BME280;54864;52.002;5.468;2023-03-19T01:24:57;100931.84;;;12.25;82.73
68075;BME280;54864;52.002;5.468;2023-03-19T01:25:58;100928.75;;;12.34;82.93
68075;BME280;54864;52.002;5.468;2023-03-19T01:27:00;100924.25;;;12.36;82.52
68075;BME280;54864;52.002;5.468;2023-03-19T01:28:01;100926.59;;;12.42;82.10
68075;BME280;54864;52.002;5.468;2023-03-19T01:29:02;100927.81;;;12.35;81.76
68075;BME280;54864;52.002;5.468;2023-03-19T01:30:04;100925.72;;;12.24;82.37
68075;BME280;54864;52.002;5.468;2023-03-19T01:31:08;100928.63;;;12.37;82.24
68075;BME280;54864;52.002;5.468;2023-03-19T01:32:09;100921.75;;;12.33;82.09
68075;BME280;54864;52.002;5.468;2023-03-19T01:33:11;100932.25;;;12.34;81.91
68075;BME280;54864;52.002;5.468;2023-03-19T01:34:12;100923.53;;;12.32;81.71
68075;BME280;54864;52.002;5.468;2023-03-19T01:35:14;100932.97;;;12.38;81.75
68075;BME280;54864;52.002;5.468;2023-03-19T01:36:14;100930.94;;;12.43;81.24
68075;BME280;54864;52.002;5.468;2023-03-19T01:37:16;100931.97;;;12.41;81.28
68075;BME280;54864;52.002;5.468;2023-03-19T01:38:17;100936.31;;;12.42;81.39
68075;BME280;54864;52.002;5.468;2023-03-19T01:39:19;100931.03;;;12.42;80.80
68075;BME280;54864;52.002;5.468;2023-03-19T01:40:19;100933.66;;;12.42;80.83
68075;BME280;54864;52.002;5.468;2023-03-19T01:41:22;100927.53;;;12.41;81.13
68075;BME280;54864;52.002;5.468;2023-03-19T01:42:22;100930.94;;;12.43;81.00
68075;BME280;54864;52.002;5.468;2023-03-19T01:43:26;100924.25;;;12.36;81.39
68075;BME280;54864;52.002;5.468;2023-03-19T01:44:29;100925.56;;;12.27;81.66
68075;BME280;54864;52.002;5.468;2023-03-19T01:45:33;100927.34;;;12.27;81.70
68075;BME280;54864;52.002;5.468;2023-03-19T01:46:37;100932.56;;;12.28;81.76
68075;BME280;54864;52.002;5.468;2023-03-19T01:47:40;100930.44;;;12.35;81.75
68075;BME280;54864;52.002;5.468;2023-03-19T01:48:45;100932.13;;;12.37;81.97
68075;BME280;54864;52.002;5.468;2023-03-19T01:49:52;100935.22;;;12.46;81.55
68075;BME280;54864;52.002;5.468;2023-03-19T01:50:53;100932.66;;;12.44;81.54
68075;BME280;54864;52.002;5.468;2023-03-19T01:51:57;100928.31;;;12.43;81.61
68075;BME280;54864;52.002;5.468;2023-03-19T01:53:00;100938.56;;;12.49;81.36
68075;BME280;54864;52.002;5.468;2023-03-19T01:54:05;100932.59;;;12.46;81.29
68075;BME280;54864;52.002;5.468;2023-03-19T01:55:08;100935.16;;;12.47;81.24
68075;BME280;54864;52.002;5.468;2023-03-19T01:56:13;100937.63;;;12.50;80.88
68075;BME280;54864;52.002;5.468;2023-03-19T01:57:15;100946.41;;;12.51;81.03
68075;BME280;54864;52.002;5.468;2023-03-19T01:58:18;100941.91;;;12.53;80.88
68075;BME280;54864;52.002;5.468;2023-03-19T01:59:22;100941.28;;;12.48;80.79
68075;BME280;54864;52.002;5.468;2023-03-19T02:00:26;100937.56;;;12.52;80.77
68075;BME280;54864;52.002;5.468;2023-03-19T02:01:31;100941.38;;;12.46;81.54
68075;BME280;54864;52.002;5.468;2023-03-19T02:02:37;100937.72;;;12.49;81.76
68075;BME280;54864;52.002;5.468;2023-03-19T02:03:39;100944.56;;;12.53;81.33
68075;BME280;54864;52.002;5.468;2023-03-19T02:04:42;100941.75;;;12.56;81.59
68075;BME280;54864;52.002;5.468;2023-03-19T02:05:46;100935.59;;;12.55;81.22
68075;BME280;54864;52.002;5.468;2023-03-19T02:06:49;100939.19;;;12.54;81.36
68075;BME280;54864;52.002;5.468;2023-03-19T02:07:52;100940.13;;;12.53;81.82
68075;BME280;54864;52.002;5.468;2023-03-19T02:08:55;100936.25;;;12.43;82.14
68075;BME280;54864;52.002;5.468;2023-03-19T02:09:57;100932.97;;;12.38;82.75
68075;BME280;54864;52.002;5.468;2023-03-19T02:11:00;100936.16;;;12.45;82.65
68075;BME280;54864;52.002;5.468;2023-03-19T02:12:01;100936.78;;;12.50;82.52
68075;BME280;54864;52.002;5.468;2023-03-19T02:13:03;100936.47;;;12.56;82.09
68075;BME280;54864;52.002;5.468;2023-03-19T02:14:04;100934.59;;;12.58;81.99
68075;BME280;54864;52.002;5.468;2023-03-19T02:15:06;100927.34;;;12.61;81.97
68075;BME280;54864;52.002;5.468;2023-03-19T02:16:07;100928.97;;;12.64;81.66
68075;BME280;54864;52.002;5.468;2023-03-19T02:17:10;100928.97;;;12.64;81.71
68075;BME280;54864;52.002;5.468;2023-03-19T02:18:12;100925.56;;;12.62;81.86
68075;BME280;54864;52.002;5.468;2023-03-19T02:19:18;100926.34;;;12.64;81.74
68075;BME280;54864;52.002;5.468;2023-03-19T02:20:25;100937.00;;;12.62;81.75
68075;BME280;54864;52.002;5.468;2023-03-19T02:21:27;100938.72;;;12.63;82.18
68075;BME280;54864;52.002;5.468;2023-03-19T02:22:29;100929.22;;;12.59;81.99
68075;BME280;54864;52.002;5.468;2023-03-19T02:23:36;100931.63;;;12.64;82.16
68075;BME280;54864;52.002;5.468;2023-03-19T02:24:43;100926.94;;;12.69;82.28
68075;BME280;54864;52.002;5.468;2023-03-19T02:25:57;100931.31;;;12.70;81.53
68075;BME280;54864;52.002;5.468;2023-03-19T02:26:59;100922.19;;;12.76;81.52
68075;BME280;54864;52.002;5.468;2023-03-19T02:28:01;100930.91;;;12.78;81.24
68075;BME280;54864;52.002;5.468;2023-03-19T02:29:02;100939.53;;;12.81;81.01
68075;BME280;54864;52.002;5.468;2023-03-19T02:30:21;100934.47;;;12.77;81.35
68075;BME280;54864;52.002;5.468;2023-03-19T02:31:22;100927.41;;;12.77;81.21
68075;BME280;54864;52.002;5.468;2023-03-19T02:32:24;100928.94;;;12.81;81.36
68075;BME280;54864;52.002;5.468;2023-03-19T02:33:26;100933.38;;;12.81;81.18
68075;BME280;54864;52.002;5.468;2023-03-19T02:34:38;100927.00;;;12.85;81.03
68075;BME280;54864;52.002;5.468;2023-03-19T02:35:41;100932.19;;;12.86;80.65
68075;BME280;54864;52.002;5.468;2023-03-19T02:36:46;100932.44;;;12.82;80.86
68075;BME280;54864;52.002;5.468;2023-03-19T02:37:48;100930.56;;;12.84;81.00
68075;BME280;54864;52.002;5.468;2023-03-19T02:38:51;100926.22;;;12.83;80.85
68075;BME280;54864;52.002;5.468;2023-03-19T02:39:55;100933.06;;;12.87;80.83
68075;BME280;54864;52.002;5.468;2023-03-19T02:41:01;100936.47;;;12.89;80.61
68075;BME280;54864;52.002;5.468;2023-03-19T02:42:04;100933.91;;;12.87;80.70
68075;BME280;54864;52.002;5.468;2023-03-19T02:43:09;100934.06;;;12.84;80.97
68075;BME280;54864;52.002;5.468;2023-03-19T02:44:11;100935.63;;;12.88;80.81
68075;BME280;54864;52.002;5.468;2023-03-19T02:45:12;100939.13;;;12.89;80.53
68075;BME280;54864;52.002;5.468;2023-03-19T02:46:14;100939.97;;;12.89;80.52
68075;BME280;54864;52.002;5.468;2023-03-19T02:47:16;100932.19;;;12.86;80.44
68075;BME280;54864;52.002;5.468;2023-03-19T02:48:18;100934.06;;;12.84;80.73
68075;BME280;54864;52.002;5.468;2023-03-19T02:49:19;100938.44;;;12.85;80.73
68075;BME280;54864;52.002;5.468;2023-03-19T02:50:20;100942.78;;;12.86;81.08
68075;BME280;54864;52.002;5.468;2023-03-19T02:51:21;100937.34;;;12.89;80.28
68075;BME280;54864;52.002;5.468;2023-03-19T02:52:23;100939.94;;;12.74;80.79
68075;BME280;54864;52.002;5.468;2023-03-19T02:53:24;100938.31;;;12.71;81.42
68075;BME280;54864;52.002;5.468;2023-03-19T02:54:26;100938.31;;;12.71;81.67
68075;BME280;54864;52.002;5.468;2023-03-19T02:55:27;100940.72;;;12.76;81.39
68075;BME280;54864;52.002;5.468;2023-03-19T02:56:30;100938.22;;;12.73;81.45
68075;BME280;54864;52.002;5.468;2023-03-19T02:57:31;100935.97;;;12.65;81.71
68075;BME280;54864;52.002;5.468;2023-03-19T02:58:32;100936.31;;;12.59;81.74
68075;BME280;54864;52.002;5.468;2023-03-19T02:59:33;100942.38;;;12.61;82.12
68075;BME280;54864;52.002;5.468;2023-03-19T03:00:35;100941.88;;;12.70;81.74
68075;BME280;54864;52.002;5.468;2023-03-19T03:01:36;100945.31;;;12.72;81.66
68075;BME280;54864;52.002;5.468;2023-03-19T03:02:38;100940.88;;;12.73;81.49
68075;BME280;54864;52.002;5.468;2023-03-19T03:03:39;100945.38;;;12.70;81.52
68075;BME280;54864;52.002;5.468;2023-03-19T03:04:41;100946.25;;;12.71;81.91
68075;BME280;54864;52.002;5.468;2023-03-19T03:05:41;100952.22;;;12.75;81.82
68075;BME280;54864;52.002;5.468;2023-03-19T03:06:43;100946.84;;;12.76;81.51
68075;BME280;54864;52.002;5.468;2023-03-19T03:07:44;100945.75;;;12.80;81.61
68075;BME280;54864;52.002;5.468;2023-03-19T03:08:46;100949.34;;;12.79;81.55
68075;BME280;54864;52.002;5.468;2023-03-19T03:09:47;100944.38;;;12.73;81.37
68075;BME280;54864;52.002;5.468;2023-03-19T03:10:49;100955.50;;;12.62;82.07
68075;BME280;54864;52.002;5.468;2023-03-19T03:11:52;100940.19;;;12.69;81.74
68075;BME280;54864;52.002;5.468;2023-03-19T03:12:54;100942.22;;;12.64;82.36
68075;BME280;54864;52.002;5.468;2023-03-19T03:13:56;100940.41;;;12.64;81.92
68075;BME280;54864;52.002;5.468;2023-03-19T03:14:57;100939.25;;;12.70;82.14
68075;BME280;54864;52.002;5.468;2023-03-19T03:15:58;100943.59;;;12.71;82.05
68075;BME280;54864;52.002;5.468;2023-03-19T03:17:01;100941.81;;;12.72;81.92
68075;BME280;54864;52.002;5.468;2023-03-19T03:18:03;100938.91;;;12.76;81.65
68075;BME280;54864;52.002;5.468;2023-03-19T03:19:04;100937.97;;;12.77;81.46
68075;BME280;54864;52.002;5.468;2023-03-19T03:20:10;100944.44;;;12.72;81.88
68075;BME280;54864;52.002;5.468;2023-03-19T03:21:12;100941.81;;;12.72;81.85
68075;BME280;54864;52.002;5.468;2023-03-19T03:22:14;100952.16;;;12.76;81.65
68075;BME280;54864;52.002;5.468;2023-03-19T03:23:15;100951.63;;;12.69;81.59
68075;BME280;54864;52.002;5.468;2023-03-19T03:24:17;100953.41;;;12.69;81.72
68075;BME280;54864;52.002;5.468;2023-03-19T03:25:18;100953.41;;;12.69;81.88
68075;BME280;54864;52.002;5.468;2023-03-19T03:26:20;100948.81;;;12.73;81.89
68075;BME280;54864;52.002;5.468;2023-03-19T03:27:22;100950.19;;;12.80;81.21
68075;BME280;54864;52.002;5.468;2023-03-19T03:28:24;100957.19;;;12.81;81.33
68075;BME280;54864;52.002;5.468;2023-03-19T03:29:25;100949.25;;;12.81;81.71
68075;BME280;54864;52.002;5.468;2023-03-19T03:30:27;100952.59;;;12.84;81.19
68075;BME280;54864;52.002;5.468;2023-03-19T03:31:28;100951.75;;;12.84;81.39
68075;BME280;54864;52.002;5.468;2023-03-19T03:32:30;100948.94;;;12.87;80.86
68075;BME280;54864;52.002;5.468;2023-03-19T03:33:30;100955.84;;;12.89;81.48
68075;BME280;54864;52.002;5.468;2023-03-19T03:34:32;100952.19;;;12.92;80.75
68075;BME280;54864;52.002;5.468;2023-03-19T03:35:33;100951.09;;;12.96;80.69
68075;BME280;54864;52.002;5.468;2023-03-19T03:36:34;100952.13;;;12.93;80.16
68075;BME280;54864;52.002;5.468;2023-03-19T03:37:36;100952.19;;;12.92;80.26
68075;BME280;54864;52.002;5.468;2023-03-19T03:38:39;100943.88;;;12.82;80.60
68075;BME280;54864;52.002;5.468;2023-03-19T03:39:39;100949.19;;;12.82;80.07
68075;BME280;54864;52.002;5.468;2023-03-19T03:40:42;100944.84;;;12.64;80.59
68075;BME280;54864;52.002;5.468;2023-03-19T03:41:43;100952.38;;;12.72;80.44
68075;BME280;54864;52.002;5.468;2023-03-19T03:42:46;100946.63;;;12.81;80.38
68075;BME280;54864;52.002;5.468;2023-03-19T03:43:47;100941.66;;;12.75;80.05
68075;BME280;54864;52.002;5.468;2023-03-19T03:44:49;100955.97;;;12.70;80.09
68075;BME280;54864;52.002;5.468;2023-03-19T03:45:50;100953.56;;;12.66;80.30
68075;BME280;54864;52.002;5.468;2023-03-19T03:46:51;100952.00;;;12.62;80.45
68075;BME280;54864;52.002;5.468;2023-03-19T03:47:52;100959.16;;;12.60;80.24
68075;BME280;54864;52.002;5.468;2023-03-19T03:48:54;100956.44;;;12.61;80.40
68075;BME280;54864;52.002;5.468;2023-03-19T03:49:55;100956.38;;;12.63;80.29
68075;BME280;54864;52.002;5.468;2023-03-19T03:50:56;100960.25;;;12.56;80.64
68075;BME280;54864;52.002;5.468;2023-03-19T03:51:57;100962.38;;;12.49;81.21
68075;BME280;54864;52.002;5.468;2023-03-19T03:52:59;100958.63;;;12.36;81.53
68075;BME280;54864;52.002;5.468;2023-03-19T03:54:00;100960.44;;;12.35;82.03
68075;BME280;54864;52.002;5.468;2023-03-19T03:55:02;100962.75;;;12.42;81.87
68075;BME280;54864;52.002;5.468;2023-03-19T03:56:03;100964.22;;;12.47;81.69
68075;BME280;54864;52.002;5.468;2023-03-19T03:57:08;100962.53;;;12.46;81.74
68075;BME280;54864;52.002;5.468;2023-03-19T03:58:11;100973.72;;;12.51;81.87
68075;BME280;54864;52.002;5.468;2023-03-19T03:59:14;100961.44;;;12.50;81.79
68075;BME280;54864;52.002;5.468;2023-03-19T04:00:15;100962.84;;;12.40;81.80
68075;BME280;54864;52.002;5.468;2023-03-19T04:01:18;100963.53;;;12.44;82.22
68075;BME280;54864;52.002;5.468;2023-03-19T04:02:19;100965.78;;;12.51;81.72
68075;BME280;54864;52.002;5.468;2023-03-19T04:03:21;100962.06;;;12.55;81.38
68075;BME280;54864;52.002;5.468;2023-03-19T04:04:23;100960.19;;;12.57;81.31
68075;BME280;54864;52.002;5.468;2023-03-19T04:05:25;100966.25;;;12.59;81.06
68075;BME280;54864;52.002;5.468;2023-03-19T04:06:27;100966.00;;;12.64;80.86
68075;BME280;54864;52.002;5.468;2023-03-19T04:07:29;100961.81;;;12.60;80.83
68075;BME280;54864;52.002;5.468;2023-03-19T04:08:30;100963.69;;;12.58;80.78
68075;BME280;54864;52.002;5.468;2023-03-19T04:09:32;100961.03;;;12.58;80.62
68075;BME280;54864;52.002;5.468;2023-03-19T04:10:32;100959.41;;;12.55;80.64
68075;BME280;54864;52.002;5.468;2023-03-19T04:11:36;100961.81;;;12.60;80.59
68075;BME280;54864;52.002;5.468;2023-03-19T04:12:37;100959.16;;;12.60;80.26
68075;BME280;54864;52.002;5.468;2023-03-19T04:13:40;100958.16;;;12.62;79.84
68075;BME280;54864;52.002;5.468;2023-03-19T04:14:41;100953.88;;;12.60;79.19
68075;BME280;54864;52.002;5.468;2023-03-19T04:15:44;100952.41;;;12.54;79.43
68075;BME280;54864;52.002;5.468;2023-03-19T04:16:44;100955.91;;;12.55;79.43
68075;BME280;54864;52.002;5.468;2023-03-19T04:17:46;100955.81;;;12.56;78.89
68075;BME280;54864;52.002;5.468;2023-03-19T04:18:47;100953.50;;;12.50;78.52
68075;BME280;54864;52.002;5.468;2023-03-19T04:19:49;100962.28;;;12.51;78.40
68075;BME280;54864;52.002;5.468;2023-03-19T04:20:50;100961.59;;;12.47;78.16
68075;BME280;54864;52.002;5.468;2023-03-19T04:21:52;100963.53;;;12.44;78.05
68075;BME280;54864;52.002;5.468;2023-03-19T04:22:54;100969.16;;;12.19;79.26
68075;BME280;54864;52.002;5.468;2023-03-19T04:23:55;100967.22;;;12.22;79.09
68075;BME280;54864;52.002;5.468;2023-03-19T04:24:56;100971.09;;;12.15;79.39
68075;BME280;54864;52.002;5.468;2023-03-19T04:25:58;100971.88;;;12.17;78.98
68075;BME280;54864;52.002;5.468;2023-03-19T04:26:59;100964.25;;;12.11;78.99
68075;BME280;54864;52.002;5.468;2023-03-19T04:28:01;100973.72;;;11.98;79.51
68075;BME280;54864;52.002;5.468;2023-03-19T04:29:05;100973.44;;;12.04;79.36
68075;BME280;54864;52.002;5.468;2023-03-19T04:30:09;100970.00;;;12.02;79.28
68075;BME280;54864;52.002;5.468;2023-03-19T04:31:10;100976.97;;;11.86;79.54
68075;BME280;54864;52.002;5.468;2023-03-19T04:32:12;100980.31;;;11.89;79.62
68075;BME280;54864;52.002;5.468;2023-03-19T04:33:13;100971.44;;;11.90;79.36
68075;BME280;54864;52.002;5.468;2023-03-19T04:34:14;100976.81;;;11.89;79.39
68075;BME280;54864;52.002;5.468;2023-03-19T04:35:15;100971.69;;;11.86;79.13
68075;BME280;54864;52.002;5.468;2023-03-19T04:36:18;100971.81;;;11.83;79.17
68075;BME280;54864;52.002;5.468;2023-03-19T04:37:19;100972.09;;;11.77;79.51
68075;BME280;54864;52.002;5.468;2023-03-19T04:38:21;100974.22;;;11.68;79.86
68075;BME280;54864;52.002;5.468;2023-03-19T04:39:22;100966.50;;;11.64;80.08
68075;BME280;54864;52.002;5.468;2023-03-19T04:40:23;100972.56;;;11.66;80.05
68075;BME280;54864;52.002;5.468;2023-03-19T04:41:24;100978.94;;;11.62;80.01
68075;BME280;54864;52.002;5.468;2023-03-19T04:42:26;100982.28;;;11.65;79.64
68075;BME280;54864;52.002;5.468;2023-03-19T04:43:27;100982.41;;;11.62;79.94
68075;BME280;54864;52.002;5.468;2023-03-19T04:44:30;100976.13;;;11.65;79.41
68075;BME280;54864;52.002;5.468;2023-03-19T04:45:31;100970.88;;;11.46;80.33
68075;BME280;54864;52.002;5.468;2023-03-19T04:46:33;100979.44;;;11.51;80.14
68075;BME280;54864;52.002;5.468;2023-03-19T04:47:34;100972.00;;;11.40;80.71
68075;BME280;54864;52.002;5.468;2023-03-19T04:48:36;100977.16;;;11.43;80.73
68075;BME280;54864;52.002;5.468;2023-03-19T04:49:38;100972.72;;;11.44;80.35
68075;BME280;54864;52.002;5.468;2023-03-19T04:50:40;100972.78;;;11.42;80.69
68075;BME280;54864;52.002;5.468;2023-03-19T04:51:42;100968.38;;;11.43;81.06
68075;BME280;54864;52.002;5.468;2023-03-19T04:52:43;100971.16;;;11.40;81.36
68075;BME280;54864;52.002;5.468;2023-03-19T04:53:44;100964.22;;;11.37;81.69
68075;BME280;54864;52.002;5.468;2023-03-19T04:54:46;100963.09;;;11.24;82.48
68075;BME280;54864;52.002;5.468;2023-03-19T04:55:47;100966.94;;;11.17;82.88
68075;BME280;54864;52.002;5.468;2023-03-19T04:56:49;100963.84;;;11.07;83.83
68075;BME280;54864;52.002;5.468;2023-03-19T04:57:50;100970.56;;;11.15;83.51
68075;BME280;54864;52.002;5.468;2023-03-19T04:58:52;100974.72;;;11.20;83.24
68075;BME280;54864;52.002;5.468;2023-03-19T04:59:54;100973.66;;;11.24;82.65
68075;BME280;54864;52.002;5.468;2023-03-19T05:00:56;100967.84;;;11.16;82.98
68075;BME280;54864;52.002;5.468;2023-03-19T05:01:56;100972.84;;;11.22;82.51
68075;BME280;54864;52.002;5.468;2023-03-19T05:02:59;100974.44;;;11.26;82.08
68075;BME280;54864;52.002;5.468;2023-03-19T05:04:00;100976.34;;;11.23;81.80
68075;BME280;54864;52.002;5.468;2023-03-19T05:05:02;100980.28;;;11.14;82.06
68075;BME280;54864;52.002;5.468;2023-03-19T05:06:03;100981.06;;;11.16;81.93
68075;BME280;54864;52.002;5.468;2023-03-19T05:07:08;100986.13;;;11.21;81.59
68075;BME280;54864;52.002;5.468;2023-03-19T05:08:09;100981.06;;;11.16;81.57
68075;BME280;54864;52.002;5.468;2023-03-19T05:09:13;100990.63;;;11.19;81.45
68075;BME280;54864;52.002;5.468;2023-03-19T05:10:13;100988.75;;;11.21;80.97
68075;BME280;54864;52.002;5.468;2023-03-19T05:11:15;100987.84;;;11.22;80.64
68075;BME280;54864;52.002;5.468;2023-03-19T05:12:16;100989.63;;;11.21;80.12
68075;BME280;54864;52.002;5.468;2023-03-19T05:13:18;100988.84;;;11.19;79.89
68075;BME280;54864;52.002;5.468;2023-03-19T05:14:19;100994.31;;;11.15;80.06
68075;BME280;54864;52.002;5.468;2023-03-19T05:15:22;100992.59;;;11.14;79.91
68075;BME280;54864;52.002;5.468;2023-03-19T05:16:23;100992.03;;;11.07;80.13
68075;BME280;54864;52.002;5.468;2023-03-19T05:17:24;100985.94;;;11.05;80.08
68075;BME280;54864;52.002;5.468;2023-03-19T05:18:25;101001.03;;;11.01;79.80
68075;BME280;54864;52.002;5.468;2023-03-19T05:19:28;100998.31;;;11.03;79.64
68075;BME280;54864;52.002;5.468;2023-03-19T05:20:29;101003.81;;;10.98;79.75
68075;BME280;54864;52.002;5.468;2023-03-19T05:21:31;101007.56;;;10.93;79.95
68075;BME280;54864;52.002;5.468;2023-03-19T05:22:32;101003.75;;;10.79;80.53
68075;BME280;54864;52.002;5.468;2023-03-19T05:23:33;101006.31;;;10.81;80.77
68075;BME280;54864;52.002;5.468;2023-03-19T05:24:35;101010.28;;;10.71;81.03